EDT,Max TemperatureF,Mean TemperatureF,Min TemperatureF,Max Dew PointF,MeanDew PointF,Min DewpointF,Max Humidity, Mean Humidity, Min Humidity, Max Sea Level PressureIn, Mean Sea Level PressureIn, Min Sea Level PressureIn, Max VisibilityMiles, Mean VisibilityMiles, Min VisibilityMiles, Max Wind SpeedMPH, Mean Wind SpeedMPH, Max Gust SpeedMPH,PrecipitationIn, CloudCover, Events, WindDirDegrees
2012-5-1,88,78,69,63,61,59,76,59,39,30.17,30.07,30.00,10,10,9,8,3,,0.00,3,,171
2012-5-2,88,75,63,63,59,56,87,58,35,30.13,30.07,30.02,10,10,9,7,2,,0.00,1,,151
2012-5-3,84,75,66,64,61,57,81,65,44,30.12,30.08,30.04,10,10,9,15,2,21,0.00,1,,138
2012-5-4,84,75,66,65,63,60,90,74,46,30.16,30.06,29.97,10,9,2,7,2,,0.30,4,Rain,308
2012-5-5,88,76,64,66,63,60,90,66,41,30.00,29.93,29.86,10,9,5,12,4,20,0.00,0,,270
2012-5-6,89,76,66,64,61,57,87,64,37,30.01,29.93,29.86,10,9,2,10,3,,0.15,2,Rain-Thunderstorm,314
2012-5-7,79,72,66,66,63,61,88,75,56,30.02,29.95,29.88,10,9,6,9,4,,0.03,5,Rain-Thunderstorm,157
2012-5-8,81,73,66,67,63,61,94,78,52,29.97,29.90,29.81,10,9,2,15,5,18,0.13,5,Rain-Thunderstorm,182
2012-5-9,69,64,55,64,59,49,90,80,54,29.87,29.83,29.78,10,8,5,15,5,23,0.11,4,Rain,302
2012-5-10,73,62,50,51,45,40,92,58,30,29.96,29.91,29.86,10,10,7,14,4,28,0.00,0,,323
2012-5-11,77,64,50,48,46,42,86,52,32,30.14,30.08,29.98,10,10,10,10,3,18,0.00,0,,76
2012-5-12,77,69,63,62,57,47,88,68,48,30.31,30.21,30.14,10,9,6,14,4,18,0.02,5,Rain,129
2012-5-13,66,62,57,63,59,55,94,89,75,30.20,30.11,29.99,10,5,2,12,4,17,1.01,8,Rain,126
2012-5-14,80,72,64,63,62,60,94,80,52,30.00,29.96,29.88,10,9,2,10,5,17,0.02,6,Rain,195
2012-5-15,79,70,60,64,60,57,100,77,50,30.02,29.96,29.91,10,8,0,10,2,,0.00,4,Fog,279
2012-5-16,82,72,61,61,57,52,93,63,38,29.98,29.94,29.89,10,10,8,14,4,21,0.00,1,,313
2012-5-17,84,70,59,62,56,52,87,64,34,30.00,29.94,29.89,10,9,7,15,2,25,0.01,2,Rain-Thunderstorm,41
2012-5-18,80,70,62,59,57,54,86,63,42,30.09,30.02,29.98,10,10,9,10,4,16,0.00,2,,82
2012-5-19,82,70,59,56,53,48,90,57,31,30.14,30.07,30.02,10,9,7,13,2,,0.00,1,,55
2012-5-20,84,72,61,64,54,46,87,56,36,30.15,30.07,30.00,10,10,5,12,3,20,0.04,2,Rain-Thunderstorm,33
2012-5-21,84,74,63,64,60,54,90,68,38,30.06,29.98,29.91,10,9,6,15,3,18,0.14,4,Rain-Thunderstorm,257
2012-5-22,79,70,62,63,59,54,94,70,51,29.96,29.87,29.82,10,9,6,16,6,20,0.01,3,Rain-Thunderstorm,302
2012-5-23,82,71,60,60,57,53,90,62,37,29.89,29.86,29.82,10,10,6,10,4,,0.00,2,,289
2012-5-24,88,74,61,62,55,49,86,56,27,29.97,29.92,29.87,10,9,7,7,2,,0.00,2,,152
2012-5-25,91,78,66,63,60,55,84,54,30,30.08,30.03,29.95,10,10,9,7,2,,0.00,1,,357
2012-5-26,91,78,66,66,60,52,90,53,29,30.12,30.06,30.00,10,9,6,10,2,16,0.00,1,,14
2012-5-27,89,80,72,63,61,59,73,53,37,30.09,30.02,29.97,10,10,9,13,5,20,0.00,1,,67
2012-5-28,87,78,71,70,64,62,78,67,44,30.05,29.96,29.88,10,10,10,9,6,17,0.04,3,,66
2012-5-29,82,74,69,68,65,63,88,73,56,29.97,29.88,29.79,10,9,4,10,6,16,0.16,6,Rain,60
2012-5-30,91,78,66,65,60,50,90,66,25,29.89,29.82,29.76,10,10,7,21,8,26,0.04,2,Rain,323
2012-5-31,91,77,63,62,58,48,87,56,24,29.86,29.81,29.74,10,10,9,14,3,21,0.00,0,,212